Georgetown, SC

4:28 AM EST on December 26, 2014 (GMT -0500)
Conway-Horry County | Change Station
CLOSE
Current Station
Airport
Location: Conway,
Elevation: 33 ft
Nearby Weather Stations

Elev 33 ft 33.83 °N, 79.12 °W | Updated 13 minutes ago

Clear
Clear
34 °F
Feels Like 34 °F
N
0
Wind Variable Wind from North

Today
High -- | Low -- °F
--% Chance of Precip.
Yesterday
High -- | Low -- °F
Precip. -- in
7:19 AM 5:16 PM
Waxing Crescent, 24% visible
Pressure 30.28 in
Visibility 7.0 miles
Clouds Clear
Dew Point 34 °F
Humidity 100%
Rainfall 0.00 in
Snow Depth Not available.
UV 0 out of 12
Pollen 3.30 out of 12
Air Quality Not available.
Flu Activity Not available.
METAR KHYW 260915Z AUTO 00000KT 7SM CLR 01/01 A3028 RMK AO2

More Conditions Fewer Conditions

Pressure 30.28 in
Visibility 7.0 miles
Clouds Clear
Dew Point 34 °F
Humidity 100%
Rainfall 0.00 in
Snow Depth Not available.
UV 0 out of 12
Pollen 3.30 out of 12
Air Quality Not available.
Flu Activity Not available.
METAR KHYW 260915Z AUTO 00000KT 7SM CLR 01/01 A3028 RMK AO2

More Conditions Fewer Conditions

10-Day Weather Forecast

Almanac

Astronomy

Dec. 26, 2014 Rise Set
Actual Time
Civil Twilight
Nautical Twilight
Astronomical Twilight
Moon
Length of Visible Light
Length of Day
Tomorrow will be .
, % of the Moon is Illuminated

Today's Extremes

State Highs State Lows

Community

WunderPhotos

Upload Photos

1,780,568 photos uploaded!

WunderBlogs® & News

Nearby

Air Quality

  Air Quality AQ Index Pollutant
Not available.

Snow Depth

Station Depth Elevation

Earthquake Activity

City Distance Mag. Time & Date
Minimum magnitude displayed is 2.5.

Coastal Water Temperatures

Place Temperature

Nearby Weather Stations